EZY34UJ EGGD-LDSP
Flight info
| Callsign | EZY34UJ |
|---|---|
| Flight time | N/A |
| Altitude | 37000 |
| Route | YORQI DCT NUCHU L607 KONAN DCT KOK DCT SISGA DCT KOMOB M150 PITES DCT EDISA DCT PICWI DCT UTABA DCT BEMKI DCT ELMEM DCT DIRAB DCT VESAL DCT PEVAL DCT SAL |
| Aircraft | A20N/M-SDE2E3FGHIRWXY/LB1 |
Departure
| Time | 2026-05-04 12:18 |
|---|---|
| Airport | Bristol Airport (EGGD) |
Arrival
| Time | N/A |
|---|---|
| Airport | Split Saint Jerome Airport (LDSP) |
| Time | Latitude | Longitude | Altitude | Speed | Heading |
|---|---|---|---|---|---|
| 2026-05-04 11:50 | 51.38530 | -2.70767 | 603 ft | 0 kts | 86° |
| 2026-05-04 12:13 | 51.38530 | -2.70739 | 603 ft | 5 kts | 86° |
| 2026-05-04 12:14 | 51.38448 | -2.71387 | 603 ft | 19 kts | 266° |
| 2026-05-04 12:15 | 51.38437 | -2.71664 | 605 ft | 17 kts | 267° |
| 2026-05-04 12:15 | 51.38432 | -2.71792 | 606 ft | 16 kts | 266° |
| 2026-05-04 12:15 | 51.38432 | -2.71972 | 609 ft | 15 kts | 271° |
| 2026-05-04 12:15 | 51.38424 | -2.72219 | 613 ft | 18 kts | 266° |
| 2026-05-04 12:16 | 51.38416 | -2.72419 | 616 ft | 17 kts | 266° |
| 2026-05-04 12:16 | 51.38411 | -2.72548 | 618 ft | 18 kts | 266° |
| 2026-05-04 12:16 | 51.38403 | -2.72755 | 619 ft | 19 kts | 266° |
| 2026-05-04 12:16 | 51.38392 | -2.73070 | 616 ft | 21 kts | 264° |
| 2026-05-04 12:17 | 51.38383 | -2.73232 | 613 ft | 12 kts | 262° |
| 2026-05-04 12:17 | 51.38328 | -2.73342 | 611 ft | 14 kts | 197° |
| 2026-05-04 12:17 | 51.38241 | -2.73338 | 612 ft | 10 kts | 175° |
| 2026-05-04 12:17 | 51.38214 | -2.73319 | 612 ft | 5 kts | 107° |
| 2026-05-04 12:18 | 51.38232 | -2.72808 | 620 ft | 78 kts | 86° |
| 2026-05-04 12:18 | 51.38280 | -2.71580 | 605 ft | 140 kts | 86° |
| 2026-05-04 12:18 | 51.38347 | -2.69915 | 997 ft | 153 kts | 84° |
| 2026-05-04 12:18 | 51.38391 | -2.68807 | 1410 ft | 153 kts | 85° |
| 2026-05-04 12:19 | 51.38489 | -2.66548 | 2160 ft | 158 kts | 83° |
| 2026-05-04 12:19 | 51.38560 | -2.65337 | 2415 ft | 168 kts | 84° |
| 2026-05-04 12:19 | 51.38615 | -2.62707 | 2928 ft | 189 kts | 87° |
| 2026-05-04 12:19 | 51.38656 | -2.60529 | 3317 ft | 206 kts | 86° |
| 2026-05-04 12:20 | 51.38715 | -2.58134 | 3652 ft | 228 kts | 86° |
| 2026-05-04 12:20 | 51.38894 | -2.55514 | 4104 ft | 246 kts | 78° |
| 2026-05-04 12:20 | 51.39565 | -2.52949 | 4650 ft | 260 kts | 51° |
| 2026-05-04 12:20 | 51.40973 | -2.51192 | 5432 ft | 265 kts | 23° |
| 2026-05-04 12:21 | 51.42738 | -2.50416 | 6230 ft | 269 kts | 14° |
| 2026-05-04 12:21 | 51.43956 | -2.49899 | 6742 ft | 272 kts | 18° |
| 2026-05-04 12:21 | 51.46269 | -2.48338 | 7779 ft | 277 kts | 28° |
| 2026-05-04 12:21 | 51.47948 | -2.46834 | 8555 ft | 281 kts | 31° |
| 2026-05-04 12:22 | 51.49639 | -2.45193 | 9313 ft | 285 kts | 33° |
| 2026-05-04 12:22 | 51.51102 | -2.43133 | 10006 ft | 287 kts | 56° |
| 2026-05-04 12:22 | 51.51897 | -2.40211 | 10619 ft | 293 kts | 81° |
| 2026-05-04 12:22 | 51.51897 | -2.36881 | 10982 ft | 308 kts | 97° |
| 2026-05-04 12:23 | 51.51622 | -2.33383 | 11338 ft | 325 kts | 98° |
| 2026-05-04 12:23 | 51.51435 | -2.30963 | 11688 ft | 331 kts | 98° |
| 2026-05-04 12:23 | 51.51071 | -2.26050 | 12616 ft | 337 kts | 98° |
| 2026-05-04 12:23 | 51.50804 | -2.22305 | 13312 ft | 340 kts | 98° |
| 2026-05-04 12:24 | 51.50626 | -2.19794 | 13765 ft | 343 kts | 98° |
| 2026-05-04 12:24 | 51.50264 | -2.14668 | 14657 ft | 348 kts | 98° |
| 2026-05-04 12:24 | 51.49994 | -2.10826 | 15313 ft | 351 kts | 98° |
| 2026-05-04 12:24 | 51.49720 | -2.06935 | 15970 ft | 354 kts | 98° |
| 2026-05-04 12:25 | 51.49442 | -2.03009 | 16605 ft | 358 kts | 98° |
| 2026-05-04 12:25 | 51.49163 | -1.99078 | 17222 ft | 361 kts | 98° |
| 2026-05-04 12:25 | 51.48876 | -1.95043 | 17851 ft | 364 kts | 98° |
| 2026-05-04 12:25 | 51.48587 | -1.91012 | 18440 ft | 367 kts | 98° |
| 2026-05-04 12:26 | 51.48292 | -1.86929 | 19020 ft | 371 kts | 98° |
| 2026-05-04 12:26 | 51.47998 | -1.82858 | 19571 ft | 374 kts | 98° |
| 2026-05-04 12:26 | 51.47697 | -1.78720 | 20131 ft | 378 kts | 98° |
| 2026-05-04 12:26 | 51.47390 | -1.74523 | 20662 ft | 382 kts | 98° |
| 2026-05-04 12:27 | 51.47078 | -1.70290 | 21185 ft | 385 kts | 99° |
| 2026-05-04 12:27 | 51.46660 | -1.66043 | 21702 ft | 388 kts | 103° |
| 2026-05-04 12:27 | 51.46294 | -1.63216 | 22042 ft | 390 kts | 104° |
| 2026-05-04 12:27 | 51.45521 | -1.57542 | 22695 ft | 394 kts | 104° |
| 2026-05-04 12:28 | 51.45129 | -1.54691 | 23017 ft | 397 kts | 104° |
| 2026-05-04 12:28 | 51.44335 | -1.48916 | 23659 ft | 401 kts | 104° |
| 2026-05-04 12:28 | 51.43739 | -1.44580 | 24104 ft | 404 kts | 104° |
| 2026-05-04 12:28 | 51.43135 | -1.40180 | 24540 ft | 408 kts | 105° |
| 2026-05-04 12:29 | 51.42521 | -1.35733 | 24994 ft | 410 kts | 105° |
| 2026-05-04 12:29 | 51.41901 | -1.31267 | 25444 ft | 413 kts | 105° |
| 2026-05-04 12:29 | 51.41280 | -1.26796 | 25856 ft | 415 kts | 105° |
| 2026-05-04 12:29 | 51.40651 | -1.22286 | 26251 ft | 418 kts | 105° |
| 2026-05-04 12:30 | 51.40039 | -1.17711 | 26630 ft | 421 kts | 104° |
| 2026-05-04 12:30 | 51.39572 | -1.13059 | 27006 ft | 425 kts | 100° |
| 2026-05-04 12:30 | 51.39274 | -1.08379 | 27366 ft | 429 kts | 98° |
| 2026-05-04 12:30 | 51.39030 | -1.03634 | 27664 ft | 433 kts | 97° |
| 2026-05-04 12:31 | 51.38787 | -0.98812 | 27953 ft | 436 kts | 97° |
| 2026-05-04 12:31 | 51.38623 | -0.95564 | 28168 ft | 438 kts | 97° |
| 2026-05-04 12:31 | 51.38292 | -0.89105 | 28614 ft | 441 kts | 97° |
| 2026-05-04 12:31 | 51.38040 | -0.84235 | 28988 ft | 442 kts | 97° |
| 2026-05-04 12:32 | 51.37785 | -0.79370 | 29439 ft | 441 kts | 98° |
| 2026-05-04 12:32 | 51.37268 | -0.69685 | 30321 ft | 439 kts | 98° |
| 2026-05-04 12:32 | 51.37004 | -0.64807 | 30728 ft | 438 kts | 98° |
| 2026-05-04 12:33 | 51.36741 | -0.59999 | 31106 ft | 437 kts | 98° |
| 2026-05-04 12:33 | 51.36473 | -0.55155 | 31484 ft | 436 kts | 98° |
| 2026-05-04 12:33 | 51.36204 | -0.50347 | 31846 ft | 435 kts | 98° |
| 2026-05-04 12:33 | 51.35938 | -0.45580 | 32192 ft | 434 kts | 98° |
| 2026-05-04 12:34 | 51.35774 | -0.42667 | 32400 ft | 433 kts | 98° |
| 2026-05-04 12:34 | 51.35600 | -0.39601 | 32607 ft | 433 kts | 98° |
| 2026-05-04 12:34 | 51.35332 | -0.34855 | 32921 ft | 432 kts | 98° |
| 2026-05-04 12:35 | 51.35058 | -0.30063 | 33231 ft | 431 kts | 98° |
| 2026-05-04 12:35 | 51.34782 | -0.25281 | 33504 ft | 431 kts | 98° |
| 2026-05-04 12:35 | 51.34507 | -0.20550 | 33711 ft | 432 kts | 98° |
| 2026-05-04 12:35 | 51.34227 | -0.15769 | 33921 ft | 433 kts | 98° |
| 2026-05-04 12:36 | 51.33947 | -0.11016 | 34140 ft | 434 kts | 98° |
| 2026-05-04 12:36 | 51.33662 | -0.06222 | 34350 ft | 435 kts | 98° |
| 2026-05-04 12:36 | 51.33373 | -0.01370 | 34543 ft | 436 kts | 98° |
| 2026-05-04 12:36 | 51.33070 | 0.03410 | 34717 ft | 436 kts | 100° |
| 2026-05-04 12:37 | 51.32649 | 0.08189 | 34847 ft | 437 kts | 101° |
| 2026-05-04 12:37 | 51.32200 | 0.13004 | 34954 ft | 437 kts | 102° |
| 2026-05-04 12:37 | 51.31749 | 0.17764 | 34987 ft | 439 kts | 102° |
| 2026-05-04 12:38 | 51.30834 | 0.27368 | 34983 ft | 439 kts | 101° |
| 2026-05-04 12:38 | 51.29914 | 0.36983 | 34987 ft | 439 kts | 102° |
| 2026-05-04 12:39 | 51.28987 | 0.46603 | 34999 ft | 439 kts | 102° |
| 2026-05-04 12:39 | 51.28050 | 0.56214 | 34994 ft | 439 kts | 102° |
| 2026-05-04 12:40 | 51.27113 | 0.65774 | 35005 ft | 439 kts | 103° |
| 2026-05-04 12:40 | 51.26162 | 0.75389 | 34998 ft | 439 kts | 103° |
| 2026-05-04 12:41 | 51.25203 | 0.84983 | 34992 ft | 440 kts | 103° |
| 2026-05-04 12:41 | 51.24234 | 0.94599 | 34978 ft | 440 kts | 103° |
| 2026-05-04 12:42 | 51.23258 | 1.04204 | 34986 ft | 440 kts | 103° |
| 2026-05-04 12:42 | 51.22268 | 1.13853 | 34973 ft | 440 kts | 103° |
| 2026-05-04 12:43 | 51.21277 | 1.23445 | 34970 ft | 440 kts | 103° |
| 2026-05-04 12:43 | 51.20272 | 1.33084 | 34969 ft | 441 kts | 103° |
| 2026-05-04 12:44 | 51.19259 | 1.42726 | 34970 ft | 441 kts | 103° |
| 2026-05-04 12:44 | 51.18241 | 1.52333 | 34960 ft | 441 kts | 103° |
| 2026-05-04 12:45 | 51.17216 | 1.61930 | 34962 ft | 441 kts | 103° |
| 2026-05-04 12:45 | 51.16182 | 1.71542 | 34957 ft | 440 kts | 104° |
| 2026-05-04 12:46 | 51.15140 | 1.81135 | 34964 ft | 441 kts | 104° |
| 2026-05-04 12:46 | 51.14093 | 1.90707 | 34964 ft | 441 kts | 104° |
| 2026-05-04 12:47 | 51.13091 | 2.00345 | 34959 ft | 443 kts | 101° |
| 2026-05-04 12:47 | 51.12517 | 2.10094 | 34955 ft | 445 kts | 99° |
| 2026-05-04 12:48 | 51.12002 | 2.19875 | 34951 ft | 445 kts | 99° |
| 2026-05-04 12:48 | 51.11470 | 2.29702 | 34948 ft | 445 kts | 99° |
| 2026-05-04 12:49 | 51.10932 | 2.39434 | 34951 ft | 445 kts | 99° |
| 2026-05-04 12:49 | 51.10379 | 2.49226 | 34950 ft | 446 kts | 99° |
| 2026-05-04 12:50 | 51.09739 | 2.57289 | 34948 ft | 443 kts | 105° |
| 2026-05-04 12:50 | 51.07915 | 2.68215 | 34956 ft | 438 kts | 115° |
| 2026-05-04 12:51 | 51.05510 | 2.77080 | 34949 ft | 432 kts | 123° |
| 2026-05-04 12:51 | 51.02714 | 2.85485 | 34948 ft | 431 kts | 123° |
| 2026-05-04 12:52 | 50.99921 | 2.93843 | 34943 ft | 431 kts | 123° |